Strona główna
METAR-TAF:

METAR-TAF

Lotnisko :

Port lotniczy Ułan Bator

Ułan Bator, Mongolia

Szerokość geograficzna: 47-55N, Długość geograficzna: 106-52E, wysokość: 1306 m

Aktualna obserwacja pogody

Raport powstał 27 minut temu, godzina 12:30 UTC
Wiatr 4 kt z kierunków zmiennych
Temperatura -18°C
Wilgotność 41%
Ciśnienie 1010 hPa
Widzialność 10 km lub więcej
Brak chmur poniżej 1500 m i brak chmur cumulonimbus

METAR: ZMUB 181230Z VRB02MPS CAVOK M18/M28 Q1010 NOSIG RMK QFE650.8 39

czas: 20:57 (12:57 UTC)

Prognoza

Raport powstał 2 godziny i 17 minut temu, godzina 10:40 UTC
Prognoza ważna od 18 godzina 12 UTC do 19 godzina 18 UTC
Wiatr 4 kt z kierunków zmiennych
Widzialność 10 km lub więcej
Brak chmur poniżej 1500 m i brak chmur cumulonimbus
Stopniowe zmiany
od 18 godzina 20 UTC do 18 godzina 22 UTC
Widzialność: 6000 m

TAF: ZMUB 181040Z 1812/1918 VRB02MPS CAVOK TNM27/1823Z TXM02/1907Z BECMG 1820/1822 6000

Obserwacja i prognoza pogody dla ponad 4000 lotnisk (raport METAR i TAF).

Dostępne stacje oznaczono żółtymi i czerwonymi punktami na mapie.

Najedź kursorem aby zobaczyć nazwę stacji.

Kliknij aby zobaczyć obserwacje i prognozy pogody.

Aby zmienić mapę: kliknij na zielony przycisk z czarnym krzyżykiem, aby powiększyć; na zielony przycisk z myślnikiem, aby pomniejszyć; na zielone strzałki, aby przejść do map sąsiednich.


METAR-TAF: